sensor_id;sensor_type;location;lat;lon;timestamp;pressure;altitude;pressure_sealevel;temperature;humidity
12360;BME280;6244;51.460;7.090;2024-03-25T00:04:10;99671.81;;;4.81;100.00
12360;BME280;6244;51.460;7.090;2024-03-25T00:09:06;99677.44;;;4.71;100.00
12360;BME280;6244;51.460;7.090;2024-03-25T00:14:09;99686.97;;;4.71;100.00
12360;BME280;6244;51.460;7.090;2024-03-25T00:19:05;99676.31;;;4.77;100.00
12360;BME280;6244;51.460;7.090;2024-03-25T00:24:04;99687.03;;;4.69;100.00
12360;BME280;6244;51.460;7.090;2024-03-25T00:29:00;99682.28;;;4.79;100.00
12360;BME280;6244;51.460;7.090;2024-03-25T00:33:57;99675.53;;;4.75;100.00
12360;BME280;6244;51.460;7.090;2024-03-25T00:38:53;99677.69;;;4.65;100.00
12360;BME280;6244;51.460;7.090;2024-03-25T00:43:51;99681.66;;;4.54;100.00
12360;BME280;6244;51.460;7.090;2024-03-25T00:48:48;99680.09;;;4.50;100.00
12360;BME280;6244;51.460;7.090;2024-03-25T00:53:44;99683.06;;;4.40;100.00
12360;BME280;6244;51.460;7.090;2024-03-25T00:58:41;99681.31;;;4.41;100.00
12360;BME280;6244;51.460;7.090;2024-03-25T01:03:39;99684.69;;;4.43;100.00
12360;BME280;6244;51.460;7.090;2024-03-25T01:08:35;99681.94;;;4.46;100.00
12360;BME280;6244;51.460;7.090;2024-03-25T01:13:32;99680.22;;;4.47;100.00
12360;BME280;6244;51.460;7.090;2024-03-25T01:18:28;99686.50;;;4.41;100.00
12360;BME280;6244;51.460;7.090;2024-03-25T01:23:26;99688.56;;;4.33;100.00
12360;BME280;6244;51.460;7.090;2024-03-25T01:28:23;99683.38;;;4.33;100.00
12360;BME280;6244;51.460;7.090;2024-03-25T01:33:19;99681.09;;;4.25;100.00
12360;BME280;6244;51.460;7.090;2024-03-25T01:38:16;99683.34;;;4.34;100.00
12360;BME280;6244;51.460;7.090;2024-03-25T01:43:14;99667.47;;;4.40;100.00
12360;BME280;6244;51.460;7.090;2024-03-25T01:48:11;99674.34;;;4.41;100.00
12360;BME280;6244;51.460;7.090;2024-03-25T01:53:09;99678.56;;;4.24;100.00
12360;BME280;6244;51.460;7.090;2024-03-25T01:58:07;99680.91;;;4.30;100.00
12360;BME280;6244;51.460;7.090;2024-03-25T02:03:05;99683.28;;;4.14;100.00
12360;BME280;6244;51.460;7.090;2024-03-25T02:08:03;99687.22;;;4.02;100.00
12360;BME280;6244;51.460;7.090;2024-03-25T02:13:00;99687.94;;;4.06;100.00
12360;BME280;6244;51.460;7.090;2024-03-25T02:17:56;99709.47;;;4.08;100.00
12360;BME280;6244;51.460;7.090;2024-03-25T02:22:55;99698.09;;;4.12;100.00
12360;BME280;6244;51.460;7.090;2024-03-25T02:27:53;99701.22;;;3.98;100.00
12360;BME280;6244;51.460;7.090;2024-03-25T02:32:49;99695.66;;;3.86;100.00
12360;BME280;6244;51.460;7.090;2024-03-25T02:37:46;99702.91;;;3.77;100.00
12360;BME280;6244;51.460;7.090;2024-03-25T02:42:43;99697.91;;;3.73;100.00
12360;BME280;6244;51.460;7.090;2024-03-25T02:47:41;99699.34;;;3.80;100.00
12360;BME280;6244;51.460;7.090;2024-03-25T02:52:38;99705.84;;;3.68;100.00
12360;BME280;6244;51.460;7.090;2024-03-25T02:57:34;99712.66;;;3.71;100.00
12360;BME280;6244;51.460;7.090;2024-03-25T03:02:31;99699.66;;;3.72;100.00
12360;BME280;6244;51.460;7.090;2024-03-25T03:07:29;99708.75;;;3.82;100.00
12360;BME280;6244;51.460;7.090;2024-03-25T03:12:25;99709.72;;;3.80;100.00
12360;BME280;6244;51.460;7.090;2024-03-25T03:17:22;99722.56;;;3.83;100.00
12360;BME280;6244;51.460;7.090;2024-03-25T03:22:18;99720.56;;;3.68;100.00
12360;BME280;6244;51.460;7.090;2024-03-25T03:27:17;99710.38;;;3.63;100.00
12360;BME280;6244;51.460;7.090;2024-03-25T03:32:13;99710.59;;;3.57;100.00
12360;BME280;6244;51.460;7.090;2024-03-25T03:37:10;99696.84;;;3.55;100.00
12360;BME280;6244;51.460;7.090;2024-03-25T03:42:07;99703.88;;;3.51;100.00
12360;BME280;6244;51.460;7.090;2024-03-25T03:47:05;99699.69;;;3.71;100.00
12360;BME280;6244;51.460;7.090;2024-03-25T03:52:02;99700.50;;;3.73;100.00
12360;BME280;6244;51.460;7.090;2024-03-25T03:56:58;99701.75;;;3.63;100.00
12360;BME280;6244;51.460;7.090;2024-03-25T04:01:55;99696.75;;;3.80;100.00
12360;BME280;6244;51.460;7.090;2024-03-25T04:06:52;99702.19;;;3.74;100.00
12360;BME280;6244;51.460;7.090;2024-03-25T04:11:49;99699.03;;;3.88;100.00
12360;BME280;6244;51.460;7.090;2024-03-25T04:16:46;99695.25;;;3.74;100.00
12360;BME280;6244;51.460;7.090;2024-03-25T04:21:43;99697.72;;;3.77;100.00
12360;BME280;6244;51.460;7.090;2024-03-25T04:26:40;99691.75;;;3.75;100.00
12360;BME280;6244;51.460;7.090;2024-03-25T04:31:37;99695.00;;;3.57;100.00
12360;BME280;6244;51.460;7.090;2024-03-25T04:36:33;99702.25;;;3.49;100.00
12360;BME280;6244;51.460;7.090;2024-03-25T04:41:30;99712.50;;;3.52;100.00
12360;BME280;6244;51.460;7.090;2024-03-25T04:46:27;99702.25;;;3.49;100.00
12360;BME280;6244;51.460;7.090;2024-03-25T04:51:23;99710.25;;;3.43;100.00
12360;BME280;6244;51.460;7.090;2024-03-25T04:56:18;99715.03;;;3.53;100.00
12360;BME280;6244;51.460;7.090;2024-03-25T05:01:14;99724.50;;;3.54;100.00
12360;BME280;6244;51.460;7.090;2024-03-25T05:06:11;99723.50;;;3.59;100.00
12360;BME280;6244;51.460;7.090;2024-03-25T05:11:06;99725.03;;;3.41;100.00
12360;BME280;6244;51.460;7.090;2024-03-25T05:16:02;99725.22;;;3.36;100.00
12360;BME280;6244;51.460;7.090;2024-03-25T05:20:58;99728.66;;;3.37;100.00
12360;BME280;6244;51.460;7.090;2024-03-25T05:25:55;99732.47;;;3.27;100.00
12360;BME280;6244;51.460;7.090;2024-03-25T05:30:50;99728.25;;;3.24;100.00
12360;BME280;6244;51.460;7.090;2024-03-25T05:35:46;99735.91;;;3.27;100.00
12360;BME280;6244;51.460;7.090;2024-03-25T05:40:42;99736.09;;;3.22;100.00
12360;BME280;6244;51.460;7.090;2024-03-25T05:45:39;99742.38;;;3.15;100.00
12360;BME280;6244;51.460;7.090;2024-03-25T05:50:34;99736.88;;;3.24;100.00
12360;BME280;6244;51.460;7.090;2024-03-25T05:55:30;99737.72;;;3.25;100.00
12360;BME280;6244;51.460;7.090;2024-03-25T06:00:25;99736.09;;;3.21;100.00
12360;BME280;6244;51.460;7.090;2024-03-25T06:05:23;99736.09;;;3.22;100.00
12360;BME280;6244;51.460;7.090;2024-03-25T06:10:18;99737.72;;;3.25;100.00
12360;BME280;6244;51.460;7.090;2024-03-25T06:15:14;99740.19;;;3.28;100.00
12360;BME280;6244;51.460;7.090;2024-03-25T06:20:10;99733.44;;;3.47;100.00
12360;BME280;6244;51.460;7.090;2024-03-25T06:25:08;99744.59;;;3.49;100.00
12360;BME280;6244;51.460;7.090;2024-03-25T06:30:05;99743.91;;;3.44;100.00
12360;BME280;6244;51.460;7.090;2024-03-25T06:35:15;99745.84;;;3.63;100.00
12360;BME280;6244;51.460;7.090;2024-03-25T06:40:13;99740.91;;;3.78;100.00
12360;BME280;6244;51.460;7.090;2024-03-25T06:45:09;99737.59;;;3.97;100.00
12360;BME280;6244;51.460;7.090;2024-03-25T06:50:05;99741.53;;;4.07;100.00
12360;BME280;6244;51.460;7.090;2024-03-25T06:55:01;99743.78;;;4.16;100.00
12360;BME280;6244;51.460;7.090;2024-03-25T06:59:58;99746.19;;;4.42;100.00
12360;BME280;6244;51.460;7.090;2024-03-25T07:04:54;99757.84;;;4.32;100.00
12360;BME280;6244;51.460;7.090;2024-03-25T07:09:49;99746.19;;;4.42;100.00
12360;BME280;6244;51.460;7.090;2024-03-25T07:14:45;99747.19;;;4.60;100.00
12360;BME280;6244;51.460;7.090;2024-03-25T07:19:42;99755.53;;;4.89;100.00
12360;BME280;6244;51.460;7.090;2024-03-25T07:24:38;99753.28;;;5.20;100.00
12360;BME280;6244;51.460;7.090;2024-03-25T07:29:34;99744.16;;;5.51;100.00
12360;BME280;6244;51.460;7.090;2024-03-25T07:34:30;99753.03;;;5.84;100.00
12360;BME280;6244;51.460;7.090;2024-03-25T07:39:27;99741.97;;;6.17;98.79
12360;BME280;6244;51.460;7.090;2024-03-25T07:44:22;99746.50;;;6.50;98.99
12360;BME280;6244;51.460;7.090;2024-03-25T07:49:18;99748.31;;;7.17;91.81
12360;BME280;6244;51.460;7.090;2024-03-25T07:54:14;99735.38;;;7.80;84.23
12360;BME280;6244;51.460;7.090;2024-03-25T07:59:11;99737.00;;;7.82;83.66
12360;BME280;6244;51.460;7.090;2024-03-25T08:04:07;99735.03;;;9.09;78.83
12360;BME280;6244;51.460;7.090;2024-03-25T08:09:02;99733.81;;;10.13;74.75
12360;BME280;6244;51.460;7.090;2024-03-25T08:13:59;99740.94;;;10.11;68.77
12360;BME280;6244;51.460;7.090;2024-03-25T08:18:56;99741.44;;;10.44;66.84
12360;BME280;6244;51.460;7.090;2024-03-25T08:23:51;99736.59;;;10.91;64.48
12360;BME280;6244;51.460;7.090;2024-03-25T08:28:47;99737.13;;;11.85;57.54
12360;BME280;6244;51.460;7.090;2024-03-25T08:33:43;99739.63;;;12.71;55.22
12360;BME280;6244;51.460;7.090;2024-03-25T08:38:40;99725.69;;;12.10;56.48
12360;BME280;6244;51.460;7.090;2024-03-25T08:43:36;99722.13;;;11.61;54.45
12360;BME280;6244;51.460;7.090;2024-03-25T08:48:31;99724.25;;;10.26;58.81
12360;BME280;6244;51.460;7.090;2024-03-25T08:53:27;99724.84;;;9.47;60.28
12360;BME280;6244;51.460;7.090;2024-03-25T08:58:24;99724.31;;;10.91;59.48
12360;BME280;6244;51.460;7.090;2024-03-25T09:03:19;99724.41;;;11.53;52.18
12360;BME280;6244;51.460;7.090;2024-03-25T09:08:15;99725.31;;;11.77;51.61
12360;BME280;6244;51.460;7.090;2024-03-25T09:13:11;99737.34;;;11.69;50.77
12360;BME280;6244;51.460;7.090;2024-03-25T09:18:08;99733.06;;;12.17;49.34
12360;BME280;6244;51.460;7.090;2024-03-25T09:23:05;99735.38;;;10.96;49.32
12360;BME280;6244;51.460;7.090;2024-03-25T09:28:02;99730.72;;;9.65;54.44
12360;BME280;6244;51.460;7.090;2024-03-25T09:32:57;99733.44;;;10.19;52.23
12360;BME280;6244;51.460;7.090;2024-03-25T09:37:54;99730.69;;;9.79;52.69
12360;BME280;6244;51.460;7.090;2024-03-25T09:42:55;99726.75;;;9.31;53.91
12360;BME280;6244;51.460;7.090;2024-03-25T09:47:51;99729.50;;;10.26;51.05
12360;BME280;6244;51.460;7.090;2024-03-25T09:52:47;99723.31;;;9.86;51.08
12360;BME280;6244;51.460;7.090;2024-03-25T09:57:45;99721.09;;;9.37;54.69
12360;BME280;6244;51.460;7.090;2024-03-25T10:02:41;99717.84;;;10.03;54.29
12360;BME280;6244;51.460;7.090;2024-03-25T10:07:37;99707.66;;;9.98;55.09
12360;BME280;6244;51.460;7.090;2024-03-25T10:12:33;99706.88;;;10.11;54.39
12360;BME280;6244;51.460;7.090;2024-03-25T10:17:31;99687.34;;;9.61;50.53
12360;BME280;6244;51.460;7.090;2024-03-25T10:22:27;99693.72;;;9.98;48.52
12360;BME280;6244;51.460;7.090;2024-03-25T10:27:23;99690.28;;;10.77;49.13
12360;BME280;6244;51.460;7.090;2024-03-25T10:32:19;99684.69;;;11.70;46.73
12360;BME280;6244;51.460;7.090;2024-03-25T10:37:17;99673.44;;;11.06;45.87
12360;BME280;6244;51.460;7.090;2024-03-25T10:42:16;99657.88;;;12.02;45.82
12360;BME280;6244;51.460;7.090;2024-03-25T10:47:19;99655.84;;;12.64;42.94
12360;BME280;6244;51.460;7.090;2024-03-25T10:52:17;99646.72;;;14.14;40.87
12360;BME280;6244;51.460;7.090;2024-03-25T10:57:14;99641.06;;;12.86;43.03
12360;BME280;6244;51.460;7.090;2024-03-25T11:02:10;99636.97;;;12.00;46.32
12360;BME280;6244;51.460;7.090;2024-03-25T11:07:07;99632.72;;;12.46;44.87
12360;BME280;6244;51.460;7.090;2024-03-25T11:12:05;99632.94;;;13.67;41.34
12360;BME280;6244;51.460;7.090;2024-03-25T11:17:01;99628.56;;;14.21;40.83
12360;BME280;6244;51.460;7.090;2024-03-25T11:22:06;99621.25;;;15.38;40.69
12360;BME280;6244;51.460;7.090;2024-03-25T11:27:06;99602.84;;;16.54;38.51
12360;BME280;6244;51.460;7.090;2024-03-25T11:32:04;99587.09;;;17.09;34.19
12360;BME280;6244;51.460;7.090;2024-03-25T11:37:00;99579.59;;;16.95;31.86
12360;BME280;6244;51.460;7.090;2024-03-25T11:41:56;99566.84;;;16.81;36.17
12360;BME280;6244;51.460;7.090;2024-03-25T11:46:53;99566.72;;;16.63;33.17
12360;BME280;6244;51.460;7.090;2024-03-25T11:51:49;99577.41;;;15.45;34.45
12360;BME280;6244;51.460;7.090;2024-03-25T11:56:44;99580.28;;;14.62;34.80
12360;BME280;6244;51.460;7.090;2024-03-25T12:01:40;99580.34;;;13.66;38.55
12360;BME280;6244;51.460;7.090;2024-03-25T12:06:37;99570.97;;;14.26;36.99
12360;BME280;6244;51.460;7.090;2024-03-25T12:11:33;99556.91;;;15.97;34.52
12360;BME280;6244;51.460;7.090;2024-03-25T12:16:29;99541.16;;;16.91;33.13
12360;BME280;6244;51.460;7.090;2024-03-25T12:21:24;99530.50;;;17.46;32.03
12360;BME280;6244;51.460;7.090;2024-03-25T12:26:21;99525.34;;;16.52;32.38
12360;BME280;6244;51.460;7.090;2024-03-25T12:31:17;99517.25;;;15.18;34.52
12360;BME280;6244;51.460;7.090;2024-03-25T12:36:12;99504.66;;;14.51;37.17
12360;BME280;6244;51.460;7.090;2024-03-25T12:41:09;99501.09;;;14.41;38.42
12360;BME280;6244;51.460;7.090;2024-03-25T12:46:06;99497.81;;;14.07;39.23
12360;BME280;6244;51.460;7.090;2024-03-25T12:51:02;99493.13;;;14.31;42.23
12360;BME280;6244;51.460;7.090;2024-03-25T12:55:58;99484.44;;;14.20;43.59
12360;BME280;6244;51.460;7.090;2024-03-25T13:00:54;99479.22;;;14.29;37.44
12360;BME280;6244;51.460;7.090;2024-03-25T13:05:51;99491.09;;;13.29;36.88
12360;BME280;6244;51.460;7.090;2024-03-25T13:10:46;99488.81;;;12.24;39.32
12360;BME280;6244;51.460;7.090;2024-03-25T13:15:42;99488.78;;;11.77;40.51
12360;BME280;6244;51.460;7.090;2024-03-25T13:20:38;99467.31;;;12.52;44.28
12360;BME280;6244;51.460;7.090;2024-03-25T13:25:35;99457.13;;;13.47;40.55
12360;BME280;6244;51.460;7.090;2024-03-25T13:30:31;99455.88;;;13.83;36.47
12360;BME280;6244;51.460;7.090;2024-03-25T13:35:27;99437.69;;;13.27;36.84
12360;BME280;6244;51.460;7.090;2024-03-25T13:40:23;99421.03;;;13.79;38.32
12360;BME280;6244;51.460;7.090;2024-03-25T13:45:20;99418.88;;;13.32;37.75
12360;BME280;6244;51.460;7.090;2024-03-25T13:50:15;99403.19;;;13.30;38.92
12360;BME280;6244;51.460;7.090;2024-03-25T13:55:11;99394.81;;;13.25;35.65
12360;BME280;6244;51.460;7.090;2024-03-25T14:00:07;99395.75;;;12.81;37.13
12360;BME280;6244;51.460;7.090;2024-03-25T14:05:05;99394.38;;;13.09;39.13
12360;BME280;6244;51.460;7.090;2024-03-25T14:10:01;99392.22;;;13.46;35.37
12360;BME280;6244;51.460;7.090;2024-03-25T14:14:56;99388.38;;;13.07;35.44
12360;BME280;6244;51.460;7.090;2024-03-25T14:19:55;99372.31;;;13.10;37.46
12360;BME280;6244;51.460;7.090;2024-03-25T14:24:54;99357.69;;;13.28;36.62
12360;BME280;6244;51.460;7.090;2024-03-25T14:29:52;99344.13;;;13.54;38.53
12360;BME280;6244;51.460;7.090;2024-03-25T14:34:48;99334.56;;;13.32;40.90
12360;BME280;6244;51.460;7.090;2024-03-25T14:39:44;99341.41;;;13.23;41.13
12360;BME280;6244;51.460;7.090;2024-03-25T14:44:41;99331.50;;;13.15;43.04
12360;BME280;6244;51.460;7.090;2024-03-25T14:49:37;99326.44;;;12.48;45.31
12360;BME280;6244;51.460;7.090;2024-03-25T14:54:34;99317.72;;;12.48;44.91
12360;BME280;6244;51.460;7.090;2024-03-25T14:59:30;99300.06;;;12.71;45.24
12360;BME280;6244;51.460;7.090;2024-03-25T15:04:27;99305.66;;;12.45;38.87
12360;BME280;6244;51.460;7.090;2024-03-25T15:09:23;99288.31;;;12.43;39.66
12360;BME280;6244;51.460;7.090;2024-03-25T15:14:18;99285.13;;;12.71;38.67
12360;BME280;6244;51.460;7.090;2024-03-25T15:19:14;99275.63;;;12.80;38.23
12360;BME280;6244;51.460;7.090;2024-03-25T15:24:11;99267.13;;;12.55;40.33
12360;BME280;6244;51.460;7.090;2024-03-25T15:29:06;99256.75;;;12.43;42.15
12360;BME280;6244;51.460;7.090;2024-03-25T15:34:02;99251.31;;;12.55;42.33
12360;BME280;6244;51.460;7.090;2024-03-25T15:38:58;99252.00;;;12.69;43.14
12360;BME280;6244;51.460;7.090;2024-03-25T15:43:55;99239.41;;;12.72;39.62
12360;BME280;6244;51.460;7.090;2024-03-25T15:48:51;99237.13;;;12.79;38.74
12360;BME280;6244;51.460;7.090;2024-03-25T15:53:46;99221.69;;;12.74;37.96
12360;BME280;6244;51.460;7.090;2024-03-25T15:58:42;99221.69;;;12.74;40.12
12360;BME280;6244;51.460;7.090;2024-03-25T16:03:39;99216.94;;;12.36;39.89
12360;BME280;6244;51.460;7.090;2024-03-25T16:08:34;99220.84;;;12.10;42.05
12360;BME280;6244;51.460;7.090;2024-03-25T16:13:30;99209.94;;;12.14;39.96
12360;BME280;6244;51.460;7.090;2024-03-25T16:18:26;99204.06;;;12.22;36.88
12360;BME280;6244;51.460;7.090;2024-03-25T16:23:23;99200.63;;;12.10;40.77
12360;BME280;6244;51.460;7.090;2024-03-25T16:28:18;99202.72;;;11.95;41.83
12360;BME280;6244;51.460;7.090;2024-03-25T16:33:14;99190.78;;;11.80;39.83
12360;BME280;6244;51.460;7.090;2024-03-25T16:38:10;99192.19;;;11.62;39.21
12360;BME280;6244;51.460;7.090;2024-03-25T16:43:07;99194.00;;;11.61;38.07
12360;BME280;6244;51.460;7.090;2024-03-25T16:48:03;99184.94;;;11.43;41.07
12360;BME280;6244;51.460;7.090;2024-03-25T16:52:58;99180.84;;;11.28;42.71
12360;BME280;6244;51.460;7.090;2024-03-25T16:57:54;99175.47;;;10.96;44.11
12360;BME280;6244;51.460;7.090;2024-03-25T17:02:51;99176.50;;;10.71;44.94
12360;BME280;6244;51.460;7.090;2024-03-25T17:07:47;99172.72;;;10.51;45.49
12360;BME280;6244;51.460;7.090;2024-03-25T17:12:42;99163.59;;;10.33;47.80
12360;BME280;6244;51.460;7.090;2024-03-25T17:17:38;99163.00;;;10.16;47.90
12360;BME280;6244;51.460;7.090;2024-03-25T17:22:35;99166.53;;;10.04;48.48
12360;BME280;6244;51.460;7.090;2024-03-25T17:27:30;99164.47;;;9.96;47.37
12360;BME280;6244;51.460;7.090;2024-03-25T17:32:26;99165.00;;;9.89;48.21
12360;BME280;6244;51.460;7.090;2024-03-25T17:37:22;99157.72;;;9.81;49.64
12360;BME280;6244;51.460;7.090;2024-03-25T17:42:19;99157.78;;;9.68;49.92
12360;BME280;6244;51.460;7.090;2024-03-25T17:47:14;99155.56;;;9.62;53.55
12360;BME280;6244;51.460;7.090;2024-03-25T17:52:10;99155.19;;;9.56;54.24
12360;BME280;6244;51.460;7.090;2024-03-25T17:57:05;99159.38;;;9.46;55.93
12360;BME280;6244;51.460;7.090;2024-03-25T18:02:02;99152.28;;;9.35;57.94
12360;BME280;6244;51.460;7.090;2024-03-25T18:06:58;99152.19;;;9.24;58.75
12360;BME280;6244;51.460;7.090;2024-03-25T18:11:54;99150.75;;;9.20;58.11
12360;BME280;6244;51.460;7.090;2024-03-25T18:16:49;99138.06;;;9.13;55.50
12360;BME280;6244;51.460;7.090;2024-03-25T18:21:46;99136.91;;;9.18;54.29
12360;BME280;6244;51.460;7.090;2024-03-25T18:26:42;99143.28;;;9.13;53.35
12360;BME280;6244;51.460;7.090;2024-03-25T18:31:37;99135.25;;;9.04;53.39
12360;BME280;6244;51.460;7.090;2024-03-25T18:36:33;99133.47;;;8.92;53.98
12360;BME280;6244;51.460;7.090;2024-03-25T18:41:30;99130.13;;;8.90;54.78
12360;BME280;6244;51.460;7.090;2024-03-25T18:46:26;99125.00;;;8.88;55.28
12360;BME280;6244;51.460;7.090;2024-03-25T18:51:21;99113.31;;;8.81;56.84
12360;BME280;6244;51.460;7.090;2024-03-25T18:56:17;99105.53;;;8.67;57.48
12360;BME280;6244;51.460;7.090;2024-03-25T19:01:14;99096.00;;;8.40;59.04
12360;BME280;6244;51.460;7.090;2024-03-25T19:06:09;99086.44;;;8.27;59.37
12360;BME280;6244;51.460;7.090;2024-03-25T19:11:05;99088.09;;;8.15;61.61
12360;BME280;6244;51.460;7.090;2024-03-25T19:16:01;99087.22;;;8.02;63.36
12360;BME280;6244;51.460;7.090;2024-03-25T19:20:58;99082.00;;;8.02;64.14
12360;BME280;6244;51.460;7.090;2024-03-25T19:25:53;99077.19;;;7.95;65.62
12360;BME280;6244;51.460;7.090;2024-03-25T19:30:49;99072.66;;;7.85;67.06
12360;BME280;6244;51.460;7.090;2024-03-25T19:35:44;99073.03;;;7.79;68.01
12360;BME280;6244;51.460;7.090;2024-03-25T19:40:41;99073.47;;;7.73;68.83
12360;BME280;6244;51.460;7.090;2024-03-25T19:45:37;99067.69;;;7.68;68.99
12360;BME280;6244;51.460;7.090;2024-03-25T19:50:33;99067.69;;;7.68;69.44
12360;BME280;6244;51.460;7.090;2024-03-25T19:55:28;99069.84;;;7.61;70.62
12360;BME280;6244;51.460;7.090;2024-03-25T20:00:25;99066.03;;;7.79;70.04
12360;BME280;6244;51.460;7.090;2024-03-25T20:05:21;99069.91;;;8.13;68.59
12360;BME280;6244;51.460;7.090;2024-03-25T20:10:17;99063.69;;;8.54;67.04
12360;BME280;6244;51.460;7.090;2024-03-25T20:15:13;99061.72;;;8.83;65.92
12360;BME280;6244;51.460;7.090;2024-03-25T20:20:10;99061.38;;;8.88;64.48
12360;BME280;6244;51.460;7.090;2024-03-25T20:25:06;99056.84;;;9.02;64.82
12360;BME280;6244;51.460;7.090;2024-03-25T20:30:03;99049.84;;;9.03;63.90
12360;BME280;6244;51.460;7.090;2024-03-25T20:34:58;99050.16;;;9.11;63.27
12360;BME280;6244;51.460;7.090;2024-03-25T20:39:56;99052.41;;;9.28;62.15
12360;BME280;6244;51.460;7.090;2024-03-25T20:44:51;99041.72;;;9.31;59.86
12360;BME280;6244;51.460;7.090;2024-03-25T20:49:47;99049.69;;;9.17;60.17
12360;BME280;6244;51.460;7.090;2024-03-25T20:54:42;99038.50;;;9.15;58.55
12360;BME280;6244;51.460;7.090;2024-03-25T20:59:39;99025.31;;;9.17;57.99
12360;BME280;6244;51.460;7.090;2024-03-25T21:04:35;99027.94;;;9.17;56.18
12360;BME280;6244;51.460;7.090;2024-03-25T21:09:31;99030.88;;;9.12;55.29
12360;BME280;6244;51.460;7.090;2024-03-25T21:14:26;99025.97;;;9.20;54.26
12360;BME280;6244;51.460;7.090;2024-03-25T21:19:23;99013.47;;;9.24;53.91
12360;BME280;6244;51.460;7.090;2024-03-25T21:24:19;99016.53;;;9.18;53.86
12360;BME280;6244;51.460;7.090;2024-03-25T21:29:15;99013.41;;;9.12;54.23
12360;BME280;6244;51.460;7.090;2024-03-25T21:34:10;99011.00;;;9.09;53.68
12360;BME280;6244;51.460;7.090;2024-03-25T21:39:07;99008.28;;;9.11;53.52
12360;BME280;6244;51.460;7.090;2024-03-25T21:44:03;99005.94;;;8.95;53.29
12360;BME280;6244;51.460;7.090;2024-03-25T21:48:59;99001.69;;;8.81;53.30
12360;BME280;6244;51.460;7.090;2024-03-25T21:53:55;98998.63;;;8.75;54.10
12360;BME280;6244;51.460;7.090;2024-03-25T21:58:52;98993.41;;;8.75;55.45
12360;BME280;6244;51.460;7.090;2024-03-25T22:03:47;98984.84;;;8.73;55.84
12360;BME280;6244;51.460;7.090;2024-03-25T22:08:43;98976.09;;;8.48;55.87
12360;BME280;6244;51.460;7.090;2024-03-25T22:13:39;98972.09;;;8.43;56.66
12360;BME280;6244;51.460;7.090;2024-03-25T22:18:40;98967.31;;;8.37;57.11
12360;BME280;6244;51.460;7.090;2024-03-25T22:23:37;98958.19;;;8.42;57.78
12360;BME280;6244;51.460;7.090;2024-03-25T22:28:34;98952.34;;;8.13;57.47
12360;BME280;6244;51.460;7.090;2024-03-25T22:33:32;98959.00;;;8.05;58.32
12360;BME280;6244;51.460;7.090;2024-03-25T22:38:31;98951.28;;;8.03;58.32
12360;BME280;6244;51.460;7.090;2024-03-25T22:43:32;98942.72;;;8.01;59.50
12360;BME280;6244;51.460;7.090;2024-03-25T22:48:30;98942.72;;;7.88;58.56
12360;BME280;6244;51.460;7.090;2024-03-25T22:53:26;98933.31;;;7.73;60.13
12360;BME280;6244;51.460;7.090;2024-03-25T22:58:24;98924.94;;;7.81;59.89
12360;BME280;6244;51.460;7.090;2024-03-25T23:03:21;98920.84;;;7.64;60.88
12360;BME280;6244;51.460;7.090;2024-03-25T23:08:17;98920.66;;;7.80;60.30
12360;BME280;6244;51.460;7.090;2024-03-25T23:13:13;98910.88;;;7.83;60.60
12360;BME280;6244;51.460;7.090;2024-03-25T23:18:10;98913.16;;;7.88;61.24
12360;BME280;6244;51.460;7.090;2024-03-25T23:23:05;98905.22;;;7.89;61.09
12360;BME280;6244;51.460;7.090;2024-03-25T23:28:01;98908.66;;;7.90;60.40
12360;BME280;6244;51.460;7.090;2024-03-25T23:32:57;98902.19;;;7.83;60.68
12360;BME280;6244;51.460;7.090;2024-03-25T23:37:54;98900.31;;;7.72;60.73
12360;BME280;6244;51.460;7.090;2024-03-25T23:42:49;98903.13;;;7.69;60.66
12360;BME280;6244;51.460;7.090;2024-03-25T23:47:45;98885.25;;;7.50;60.96
12360;BME280;6244;51.460;7.090;2024-03-25T23:52:41;98885.84;;;7.41;61.37
12360;BME280;6244;51.460;7.090;2024-03-25T23:57:38;98889.09;;;7.45;62.20
